Time;durP1;ratioP1;P1;durP2;ratioP2;P2;SDS_P1;SDS_P2;PMS_P1;PMS_P2;Temp;Humidity;BMP_temperature;BMP_pressure;BME280_temperature;BME280_humidity;BME280_pressure;Samples;Min_cycle;Max_cycle;Signal;HPM_P1;HPM_P2
2022/06/16 00:01:36;;;;;;;5.15;1.75;;;;;;;16.08;53.21;100563.22;5043530;28;20040;-72
2022/06/16 00:04:01;;;;;;;4.15;1.55;;;;;;;16.04;53.01;100558.91;5041684;28;20047;-72
2022/06/16 00:06:27;;;;;;;3.15;1.63;;;;;;;16.02;53.13;100558.94;5044598;28;20033;-72
2022/06/16 00:08:52;;;;;;;5.63;2.38;;;;;;;16.02;52.77;100566.91;5041768;28;20048;-72
2022/06/16 00:11:17;;;;;;;5.95;1.95;;;;;;;16.04;53.16;100559.78;5042944;28;20102;-72
2022/06/16 00:13:44;;;;;;;4.90;1.63;;;;;;;15.93;53.76;100562.75;5043149;28;20053;-72
2022/06/16 00:16:10;;;;;;;5.15;1.90;;;;;;;15.88;53.41;100559.31;5042232;28;20052;-72
2022/06/16 00:18:37;;;;;;;4.38;1.85;;;;;;;15.87;53.34;100575.31;5044360;28;20403;-72
2022/06/16 00:21:03;;;;;;;6.28;2.25;;;;;;;15.83;53.53;100561.25;5037433;28;20487;-73
2022/06/16 00:23:29;;;;;;;3.88;1.88;;;;;;;15.80;53.70;100571.97;5039415;28;20123;-72
2022/06/16 00:25:54;;;;;;;5.13;1.73;;;;;;;15.71;53.61;100567.75;5042537;28;20116;-72
2022/06/16 00:28:19;;;;;;;5.07;1.67;;;;;;;15.71;53.26;100559.75;5042483;28;20036;-72
2022/06/16 00:30:46;;;;;;;4.00;1.90;;;;;;;15.72;53.82;100558.88;5042506;28;20476;-72
2022/06/16 00:33:11;;;;;;;5.47;2.03;;;;;;;15.74;53.61;100551.69;5040257;28;20047;-72
2022/06/16 00:35:37;;;;;;;5.10;2.10;;;;;;;15.74;53.37;100557.03;5043968;28;20033;-72
2022/06/16 00:38:02;;;;;;;5.78;1.90;;;;;;;15.75;53.80;100552.59;5034713;28;20112;-72
2022/06/16 00:40:28;;;;;;;5.68;1.90;;;;;;;15.70;54.01;100555.38;5042220;28;20038;-72
2022/06/16 00:42:53;;;;;;;3.38;1.73;;;;;;;15.63;53.92;100553.75;5041723;28;20118;-72
2022/06/16 00:45:53;;;;;;;6.18;1.95;;;;;;;15.57;55.10;100549.47;5043339;28;20087;-72
2022/06/16 00:48:34;;;;;;;4.85;1.80;;;;;;;15.52;55.17;100543.41;5036969;28;20033;-72
2022/06/16 00:51:24;;;;;;;3.78;1.65;;;;;;;15.44;54.88;100537.41;5040458;28;20041;-72
2022/06/16 00:53:50;;;;;;;6.18;2.17;;;;;;;15.40;54.64;100540.19;5042396;28;20048;-72
2022/06/16 00:56:19;;;;;;;4.25;1.92;;;;;;;15.33;54.80;100535.03;5040643;28;20046;-72
2022/06/16 00:58:47;;;;;;;5.65;1.67;;;;;;;15.29;54.59;100538.66;5041805;28;20078;-72
2022/06/16 01:01:13;;;;;;;3.63;1.88;;;;;;;15.26;56.54;100546.72;5041366;28;20614;-72
2022/06/16 01:06:28;;;;;;;5.00;1.90;;;;;;;15.34;55.40;100533.25;5039459;28;20055;-72
2022/06/16 01:09:10;;;;;;;4.00;2.08;;;;;;;15.36;55.02;100538.53;5037851;28;20030;-72
2022/06/16 01:14:56;;;;;;;4.90;2.20;;;;;;;15.41;54.56;100537.50;5037737;28;20041;-72
2022/06/16 01:17:40;;;;;;;4.93;1.98;;;;;;;15.38;56.60;100534.03;5039336;28;20507;-72
2022/06/16 01:20:15;;;;;;;4.30;1.98;;;;;;;15.29;55.57;100538.66;5037564;28;20045;-72
2022/06/16 01:23:04;;;;;;;3.53;1.70;;;;;;;15.29;55.56;100535.13;5035968;28;20029;-72
2022/06/16 01:25:50;;;;;;;4.40;1.90;;;;;;;15.27;55.92;100534.31;5019192;28;20038;-72
2022/06/16 01:28:32;;;;;;;3.70;1.77;;;;;;;15.21;56.64;100543.31;5042058;28;20079;-72
2022/06/16 01:31:24;;;;;;;4.82;2.20;;;;;;;15.09;56.92;100536.53;5041815;28;20048;-72
2022/06/16 01:34:06;;;;;;;5.57;2.40;;;;;;;15.00;56.89;100544.72;5041428;28;20029;-72
2022/06/16 01:36:38;;;;;;;5.25;1.90;;;;;;;14.97;56.43;100535.94;5020599;28;20037;-72
2022/06/16 01:39:17;;;;;;;5.93;1.90;;;;;;;14.94;57.31;100533.38;5041787;28;20518;-72
2022/06/16 01:41:53;;;;;;;4.50;1.88;;;;;;;14.86;58.22;100534.41;5040000;28;20033;-72
2022/06/16 01:44:22;;;;;;;4.82;1.85;;;;;;;14.75;57.75;100536.47;5036252;28;20041;-72
2022/06/16 01:46:54;;;;;;;7.38;2.10;;;;;;;14.76;58.00;100532.03;5040326;28;20082;-72
2022/06/16 01:49:38;;;;;;;3.75;1.85;;;;;;;14.75;58.74;100528.50;5039340;28;20033;-72
2022/06/16 01:52:32;;;;;;;4.53;1.85;;;;;;;14.73;58.17;100530.31;5040849;28;20116;-72
2022/06/16 01:55:03;;;;;;;5.68;2.03;;;;;;;14.70;58.20;100533.03;5024684;28;20053;-72
2022/06/16 01:57:36;;;;;;;6.25;2.00;;;;;;;14.57;58.42;100528.91;5036054;28;20068;-72
2022/06/16 02:00:09;;;;;;;5.13;2.10;;;;;;;14.57;58.09;100534.22;5039956;28;20055;-72
2022/06/16 02:02:48;;;;;;;7.68;2.60;;;;;;;14.52;57.56;100522.81;5036674;28;20128;-72
2022/06/16 02:05:23;;;;;;;4.85;2.03;;;;;;;14.52;58.72;100533.44;5039315;28;20051;-72
2022/06/16 02:07:58;;;;;;;5.22;2.05;;;;;;;14.48;58.39;100533.47;5019290;28;20065;-72
2022/06/16 02:10:37;;;;;;;4.78;2.22;;;;;;;14.44;59.21;100526.50;5039464;28;20036;-72
2022/06/16 02:13:05;;;;;;;7.25;2.20;;;;;;;14.41;58.87;100531.00;5049438;28;20555;-72
2022/06/16 02:15:42;;;;;;;7.40;2.10;;;;;;;14.45;59.24;100537.97;5038810;28;20082;-72
2022/06/16 02:18:12;;;;;;;4.43;2.05;;;;;;;14.43;59.27;100534.47;5041204;28;20029;-72
2022/06/16 02:21:17;;;;;;;6.05;2.22;;;;;;;14.45;59.83;100530.88;5038687;28;20041;-72
2022/06/16 02:23:44;;;;;;;5.00;2.40;;;;;;;14.42;59.52;100533.59;5008356;28;20453;-72
2022/06/16 02:26:10;;;;;;;5.90;3.05;;;;;;;14.36;59.63;100523.13;5034322;28;20040;-72
2022/06/16 02:28:50;;;;;;;5.68;2.58;;;;;;;14.41;59.97;100528.34;5040519;28;20566;-72
2022/06/16 02:31:45;;;;;;;6.72;2.13;;;;;;;14.48;59.61;100525.50;5040639;28;20033;-72
2022/06/16 02:34:33;;;;;;;6.55;2.28;;;;;;;14.52;60.13;100525.47;5035959;28;20061;-72
2022/06/16 02:37:39;;;;;;;3.78;1.90;;;;;;;14.61;59.73;100517.28;5035508;28;20045;-72
2022/06/16 02:40:18;;;;;;;6.32;2.63;;;;;;;14.65;59.64;100519.00;5040176;28;20040;-72
2022/06/16 02:43:05;;;;;;;7.50;3.50;;;;;;;14.68;59.26;100511.81;5036506;28;20044;-72
2022/06/16 02:46:01;;;;;;;3.85;2.20;;;;;;;14.68;59.55;100508.28;5020403;28;20132;-72
2022/06/16 02:48:32;;;;;;;5.25;2.40;;;;;;;14.65;59.99;100519.84;5056356;28;20373;-72
2022/06/16 02:51:06;;;;;;;7.75;2.85;;;;;;;14.61;59.62;100522.59;5037306;28;20452;-72
2022/06/16 02:56:35;;;;;;;5.90;2.33;;;;;;;14.72;59.47;100504.63;5022275;28;20037;-73
2022/06/16 02:59:10;;;;;;;4.18;1.95;;;;;;;14.80;59.36;100505.34;5044666;28;20037;-72
2022/06/16 03:01:36;;;;;;;6.00;2.40;;;;;;;14.84;59.06;100499.03;5022251;28;20564;-71
2022/06/16 03:04:13;;;;;;;4.18;2.00;;;;;;;14.86;59.45;100502.53;5043860;28;20407;-72
2022/06/16 03:06:43;;;;;;;4.38;1.98;;;;;;;14.86;59.03;100502.53;5022185;28;20052;-72
2022/06/16 03:09:09;;;;;;;5.50;2.38;;;;;;;14.85;58.90;100497.25;5042836;28;20037;-72
2022/06/16 03:11:36;;;;;;;4.43;2.20;;;;;;;14.87;59.18;100506.94;5041526;28;20434;-72
2022/06/16 03:14:07;;;;;;;6.53;2.67;;;;;;;14.94;59.37;100504.13;5044564;28;20514;-72
2022/06/16 03:16:38;;;;;;;5.35;2.40;;;;;;;15.03;59.37;100503.91;5042306;28;20069;-72
2022/06/16 03:19:04;;;;;;;5.82;2.75;;;;;;;15.02;59.30;100504.81;5042313;28;20037;-72
2022/06/16 03:21:30;;;;;;;4.32;2.33;;;;;;;15.05;59.81;100512.72;5039538;28;20021;-72
2022/06/16 03:23:56;;;;;;;3.97;2.40;;;;;;;15.01;60.07;100516.34;5043099;28;20032;-72
2022/06/16 03:26:21;;;;;;;6.88;2.15;;;;;;;15.03;59.77;100519.84;5038485;28;20171;-72
2022/06/16 03:28:52;;;;;;;5.72;2.25;;;;;;;15.07;59.46;100521.53;5042611;28;20036;-72
2022/06/16 03:31:18;;;;;;;5.88;2.55;;;;;;;15.08;59.77;100523.25;5042091;28;20037;-72
2022/06/16 03:33:43;;;;;;;4.85;2.83;;;;;;;15.12;59.85;100531.13;5036853;28;20041;-72
2022/06/16 03:36:12;;;;;;;6.38;2.85;;;;;;;15.12;59.51;100535.56;5040530;28;20385;-72
2022/06/16 03:38:42;;;;;;;5.40;2.90;;;;;;;15.11;60.24;100547.09;5051755;28;20041;-72
2022/06/16 03:41:09;;;;;;;6.47;2.63;;;;;;;15.13;59.82;100547.94;5041692;28;20036;-72
2022/06/16 03:43:35;;;;;;;7.55;2.70;;;;;;;15.15;59.94;100545.25;5043095;28;20446;-72
2022/06/16 03:46:12;;;;;;;6.55;2.85;;;;;;;15.22;59.68;100547.72;5038131;28;20076;-72
2022/06/16 03:48:38;;;;;;;5.30;2.40;;;;;;;15.31;59.42;100543.97;5042418;28;20075;-72
2022/06/16 03:51:08;;;;;;;6.15;2.63;;;;;;;15.40;59.02;100542.84;5039807;28;20057;-72
2022/06/16 03:53:38;;;;;;;5.60;2.58;;;;;;;15.58;58.78;100545.00;5040401;28;20044;-72
2022/06/16 03:56:05;;;;;;;5.43;2.60;;;;;;;15.78;58.65;100537.41;5021490;28;20013;-72
2022/06/16 03:58:32;;;;;;;7.60;2.67;;;;;;;15.98;58.54;100542.19;5035707;28;20033;-72
2022/06/16 04:01:01;;;;;;;8.25;4.13;;;;;;;16.17;58.11;100523.88;5040872;28;20044;-72
2022/06/16 04:06:14;;;;;;;7.65;3.97;;;;;;;16.63;57.09;100521.59;5023059;28;20029;-73
2022/06/16 04:08:42;;;;;;;5.38;3.00;;;;;;;16.79;56.74;100519.38;5039994;28;20048;-72
2022/06/16 04:11:27;;;;;;;5.82;3.05;;;;;;;16.85;56.47;100532.50;5041972;28;20033;-72
2022/06/16 04:13:55;;;;;;;7.38;2.83;;;;;;;16.85;56.39;100537.84;5036783;28;20061;-73
2022/06/16 04:16:20;;;;;;;5.97;2.80;;;;;;;16.83;56.81;100540.56;5042412;28;20463;-72
2022/06/16 04:18:46;;;;;;;4.97;3.28;;;;;;;16.80;57.43;100545.13;5041520;28;20120;-72
2022/06/16 04:21:12;;;;;;;5.65;2.95;;;;;;;16.69;57.66;100542.75;5039934;28;20042;-72
2022/06/16 04:23:57;;;;;;;6.13;3.35;;;;;;;16.61;58.09;100551.00;5039442;28;20056;-72
2022/06/16 04:26:24;;;;;;;5.22;2.90;;;;;;;16.64;58.04;100550.88;5034403;28;20500;-72
2022/06/16 04:28:50;;;;;;;5.05;3.05;;;;;;;16.69;58.00;100552.53;5039192;28;20116;-72
2022/06/16 04:31:19;;;;;;;6.35;2.85;;;;;;;16.78;58.08;100541.63;5039635;28;20435;-72
2022/06/16 04:33:45;;;;;;;5.55;3.20;;;;;;;16.94;57.46;100545.53;5041863;28;20060;-72
2022/06/16 04:36:13;;;;;;;6.88;3.10;;;;;;;16.99;57.67;100554.25;5042363;28;20079;-73
2022/06/16 04:38:48;;;;;;;12.43;3.00;;;;;;;17.07;57.36;100549.53;5024035;28;20549;-72
2022/06/16 04:41:15;;;;;;;4.80;2.83;;;;;;;17.28;57.07;100539.09;5041553;28;20056;-72
2022/06/16 04:43:41;;;;;;;5.15;2.90;;;;;;;17.46;56.57;100533.13;5040625;28;20025;-72
2022/06/16 04:46:08;;;;;;;8.35;3.05;;;;;;;17.69;55.99;100526.13;5041808;28;20113;-72
2022/06/16 04:48:40;;;;;;;6.22;2.85;;;;;;;17.86;54.98;100526.41;5039325;28;20435;-72
2022/06/16 04:51:09;;;;;;;7.13;2.97;;;;;;;17.93;54.39;100529.72;5040709;28;20119;-72
2022/06/16 04:53:35;;;;;;;5.55;2.70;;;;;;;18.03;53.45;100520.47;5041033;28;20133;-73
2022/06/16 04:56:09;;;;;;;4.93;2.90;;;;;;;18.16;53.39;100510.19;5039348;28;20068;-72
2022/06/16 04:58:53;;;;;;;5.53;2.58;;;;;;;18.33;52.48;100521.09;5041039;28;20657;-72
2022/06/16 05:01:32;;;;;;;8.25;3.45;;;;;;;18.46;51.88;100512.59;5037066;28;20064;-72
2022/06/16 05:04:16;;;;;;;3.90;2.22;;;;;;;18.66;51.71;100515.38;5036695;28;20042;-72
2022/06/16 05:06:45;;;;;;;7.88;3.05;;;;;;;18.90;51.25;100510.84;5040289;28;20029;-72
2022/06/16 05:09:20;;;;;;;5.55;2.72;;;;;;;19.23;51.01;100511.28;5041317;28;20603;-73
2022/06/16 05:12:12;;;;;;;7.57;3.53;;;;;;;19.59;50.03;100517.75;5038439;28;20044;-72
2022/06/16 05:14:51;;;;;;;5.30;2.97;;;;;;;19.95;49.15;100517.13;5039766;28;20030;-72
2022/06/16 05:17:28;;;;;;;6.38;2.40;;;;;;;20.11;48.46;100516.34;5039782;28;20064;-73
2022/06/16 05:20:23;;;;;;;5.55;2.63;;;;;;;20.19;48.86;100523.16;5040258;28;20041;-73
2022/06/16 05:23:12;;;;;;;6.20;3.03;;;;;;;20.27;48.33;100524.53;5037693;28;20087;-72
2022/06/16 05:26:02;;;;;;;10.98;4.88;;;;;;;20.36;48.65;100523.25;5038099;28;20112;-72
2022/06/16 05:28:45;;;;;;;7.63;3.40;;;;;;;20.46;48.41;100526.34;5036360;28;20064;-73
2022/06/16 05:31:27;;;;;;;5.70;2.70;;;;;;;20.56;47.95;100533.03;5038004;28;20404;-73
2022/06/16 05:33:56;;;;;;;6.20;3.30;;;;;;;20.70;48.00;100543.13;5041007;28;20037;-72
2022/06/16 05:36:28;;;;;;;7.13;3.38;;;;;;;20.98;47.22;100546.19;5040791;28;20029;-73
2022/06/16 05:39:04;;;;;;;6.68;3.55;;;;;;;21.37;47.06;100545.16;5035628;28;20392;-73
2022/06/16 05:41:47;;;;;;;15.52;5.22;;;;;;;21.59;46.04;100550.34;5037282;28;20039;-72
2022/06/16 05:44:36;;;;;;;8.18;3.67;;;;;;;21.83;45.95;100556.25;5039973;28;20029;-73
2022/06/16 05:47:12;;;;;;;10.10;3.22;;;;;;;22.06;45.72;100554.13;5022431;28;20753;-72
2022/06/16 05:49:42;;;;;;;4.40;2.78;;;;;;;22.17;44.72;100554.44;5032163;28;20096;-73
2022/06/16 05:52:11;;;;;;;10.55;3.83;;;;;;;22.17;45.07;100549.06;5040675;28;20495;-72
2022/06/16 05:54:40;;;;;;;6.90;3.35;;;;;;;21.98;45.05;100551.00;5039278;28;20035;-73
2022/06/16 05:57:07;;;;;;;6.45;2.90;;;;;;;21.73;45.27;100554.97;5039752;28;20125;-73
2022/06/16 05:59:33;;;;;;;6.47;3.13;;;;;;;21.55;46.16;100555.94;5040959;28;20033;-73
2022/06/16 06:01:59;;;;;;;7.93;2.95;;;;;;;21.41;46.72;100567.38;5037453;28;20038;-73
2022/06/16 06:04:26;;;;;;;5.82;3.05;;;;;;;21.51;46.37;100562.41;5048932;28;20033;-73
2022/06/16 06:06:53;;;;;;;6.50;2.90;;;;;;;21.63;46.67;100570.69;5040106;28;20040;-72
2022/06/16 06:16:25;;;;;;;10.30;4.53;;;;;;;21.95;45.80;100559.22;5019054;28;20060;-73
2022/06/16 06:18:12;;;;;;;7.05;3.47;;;;;;;22.28;44.58;100560.13;5019238;28;20497;-72
2022/06/16 06:20:38;;;;;;;8.43;2.85;;;;;;;22.47;44.35;100561.81;5040390;28;20483;-73
2022/06/16 06:23:03;;;;;;;8.38;3.55;;;;;;;22.58;44.29;100564.78;5048280;28;20071;-72
2022/06/16 06:25:29;;;;;;;8.88;3.53;;;;;;;22.60;44.00;100570.94;5042311;28;20073;-73
2022/06/16 06:27:54;;;;;;;9.43;2.97;;;;;;;22.73;43.93;100579.19;5045243;28;20029;-73
2022/06/16 06:30:26;;;;;;;5.30;3.45;;;;;;;22.76;44.38;100585.25;5043668;28;20113;-73
2022/06/16 06:32:52;;;;;;;7.63;3.85;;;;;;;22.78;44.23;100581.63;5038338;28;20028;-73
2022/06/16 06:35:17;;;;;;;6.55;2.78;;;;;;;22.82;44.41;100577.81;5045996;28;20094;-73
2022/06/16 06:37:44;;;;;;;8.30;3.10;;;;;;;22.81;44.43;100582.31;5041898;28;20041;-72
2022/06/16 06:40:18;;;;;;;8.13;4.57;;;;;;;22.76;45.06;100585.25;5035614;28;20186;-73
2022/06/16 06:42:43;;;;;;;6.93;3.72;;;;;;;22.80;44.55;100585.13;5043886;28;20025;-73
2022/06/16 06:45:10;;;;;;;6.90;4.30;;;;;;;22.91;44.45;100594.31;5044414;28;20055;-73
2022/06/16 06:47:35;;;;;;;6.18;3.78;;;;;;;22.95;44.48;100597.69;5043065;28;20563;-73
2022/06/16 06:50:01;;;;;;;7.25;3.50;;;;;;;23.02;44.88;100601.81;5044566;28;20571;-73
2022/06/16 06:52:27;;;;;;;9.90;3.45;;;;;;;23.04;44.23;100605.28;5042755;28;20112;-73
2022/06/16 06:54:52;;;;;;;7.47;3.30;;;;;;;23.10;43.80;100604.06;5045048;28;20037;-73
2022/06/16 06:57:26;;;;;;;9.40;4.40;;;;;;;23.26;44.30;100614.81;5044407;28;20037;-72
2022/06/16 06:59:53;;;;;;;5.50;3.33;;;;;;;23.36;44.15;100621.41;5042692;28;20484;-73
2022/06/16 07:02:20;;;;;;;8.02;4.18;;;;;;;23.47;43.56;100616.25;5044982;28;20060;-73
2022/06/16 07:04:45;;;;;;;5.90;3.17;;;;;;;23.45;42.26;100614.59;5042702;28;20042;-73
2022/06/16 07:07:14;;;;;;;4.80;2.53;;;;;;;23.41;41.65;100613.94;5043986;28;20043;-73
2022/06/16 07:09:40;;;;;;;8.30;2.80;;;;;;;23.30;41.36;100616.38;5045420;28;20037;-73
2022/06/16 07:12:13;;;;;;;8.00;3.00;;;;;;;23.12;41.81;100626.38;5041738;28;20033;-73
2022/06/16 07:14:39;;;;;;;5.97;3.30;;;;;;;23.05;42.06;100633.91;5044538;28;20037;-72
2022/06/16 07:17:05;;;;;;;5.32;2.80;;;;;;;23.05;41.81;100644.69;5044436;28;20025;-73
2022/06/16 07:19:33;;;;;;;6.80;3.38;;;;;;;22.87;42.59;100656.44;5043264;28;20041;-73
2022/06/16 07:21:59;;;;;;;8.88;4.28;;;;;;;22.76;42.81;100657.03;5042531;28;20037;-73
2022/06/16 07:24:24;;;;;;;6.00;2.65;;;;;;;22.63;42.95;100661.34;5042642;28;20068;-73
2022/06/16 07:26:49;;;;;;;7.43;3.33;;;;;;;22.20;46.63;100653.78;5044721;28;20037;-73
2022/06/16 07:29:15;;;;;;;12.30;3.55;;;;;;;21.48;50.05;100640.44;5043641;28;20408;-73
2022/06/16 07:31:40;;;;;;;11.82;3.55;;;;;;;21.07;51.11;100646.00;5041518;28;20488;-73
2022/06/16 07:34:05;;;;;;;9.35;3.80;;;;;;;21.01;54.33;100658.75;5044768;28;20427;-73
2022/06/16 07:36:31;;;;;;;8.32;3.72;;;;;;;21.23;53.92;100663.94;5041992;28;20407;-73
2022/06/16 07:38:56;;;;;;;11.55;4.47;;;;;;;21.48;54.19;100656.53;5045222;28;20407;-73
2022/06/16 07:41:36;;;;;;;7.93;3.90;;;;;;;21.83;53.86;100666.41;5041667;28;20049;-73
2022/06/16 07:44:06;;;;;;;6.47;3.03;;;;;;;21.81;55.50;100656.66;5042238;28;20042;-73
2022/06/16 07:46:32;;;;;;;5.93;2.78;;;;;;;21.89;51.62;100667.91;5038634;28;20040;-73
2022/06/16 07:48:58;;;;;;;8.82;3.45;;;;;;;21.94;50.96;100668.53;5042844;28;20033;-73
2022/06/16 07:51:24;;;;;;;6.30;2.65;;;;;;;22.07;49.24;100669.63;5039349;28;20037;-73
2022/06/16 07:53:49;;;;;;;5.75;3.13;;;;;;;22.29;49.14;100668.53;5043422;28;20045;-72
2022/06/16 07:56:16;;;;;;;7.95;3.40;;;;;;;22.39;48.59;100655.50;5042076;28;20044;-73
2022/06/16 07:58:43;;;;;;;4.97;2.78;;;;;;;22.71;47.96;100657.28;5038289;28;20059;-73
2022/06/16 08:01:09;;;;;;;7.07;2.92;;;;;;;22.94;47.08;100661.41;5041705;28;20048;-73
2022/06/16 08:03:35;;;;;;;9.88;3.30;;;;;;;23.02;46.30;100660.16;5043493;28;20043;-73
2022/06/16 08:06:05;;;;;;;7.75;2.60;;;;;;;23.14;47.56;100665.72;5043374;28;20029;-73
2022/06/16 08:08:30;;;;;;;5.53;3.08;;;;;;;23.19;45.69;100652.88;5041569;28;20526;-73
2022/06/16 08:10:55;;;;;;;5.28;3.15;;;;;;;23.20;45.51;100653.72;5044176;28;20036;-73
2022/06/16 08:13:23;;;;;;;5.85;2.80;;;;;;;23.45;43.94;100653.22;5041759;28;20056;-73
2022/06/16 08:15:50;;;;;;;7.07;2.92;;;;;;;23.66;44.84;100656.47;5043383;28;20033;-73
2022/06/16 08:18:19;;;;;;;7.70;2.75;;;;;;;23.78;44.02;100655.75;5043686;28;20127;-73
2022/06/16 08:20:45;;;;;;;6.68;4.10;;;;;;;23.80;44.72;100659.25;5037140;28;20064;-72
2022/06/16 08:23:11;;;;;;;8.48;4.32;;;;;;;23.77;45.43;100659.44;5036818;28;20045;-73
2022/06/16 08:25:37;;;;;;;11.60;4.18;;;;;;;23.98;43.68;100668.06;5043759;28;20040;-73
2022/06/16 08:28:04;;;;;;;6.28;2.70;;;;;;;24.18;43.82;100666.88;5042513;28;20029;-73
2022/06/16 08:30:31;;;;;;;9.10;3.10;;;;;;;24.08;42.89;100672.88;5042127;28;20092;-73
2022/06/16 08:32:57;;;;;;;5.28;2.58;;;;;;;23.97;42.30;100676.22;5043374;28;20132;-73
2022/06/16 08:35:23;;;;;;;5.28;2.78;;;;;;;23.84;43.52;100671.59;5040645;28;20496;-73
2022/06/16 08:37:48;;;;;;;5.38;2.75;;;;;;;23.81;43.17;100673.56;5043665;28;20047;-73
2022/06/16 08:40:15;;;;;;;11.07;3.10;;;;;;;23.87;42.90;100670.53;5042035;28;20559;-73
2022/06/16 08:42:59;;;;;;;7.65;3.05;;;;;;;24.05;42.64;100669.44;5041363;28;20472;-73
2022/06/16 08:45:54;;;;;;;10.30;3.63;;;;;;;24.30;43.63;100670.63;5034666;28;20036;-73
2022/06/16 08:48:36;;;;;;;7.38;3.03;;;;;;;24.39;40.89;100675.47;5040670;28;20037;-73
2022/06/16 08:51:01;;;;;;;9.55;3.13;;;;;;;24.35;41.61;100673.91;5037760;28;20415;-73
2022/06/16 08:53:55;;;;;;;9.15;3.70;;;;;;;24.59;40.81;100681.50;5042164;28;20033;-73
2022/06/16 08:56:40;;;;;;;6.80;4.53;;;;;;;24.85;40.23;100680.72;5040928;28;20033;-73
2022/06/16 08:59:16;;;;;;;7.97;3.88;;;;;;;25.07;40.34;100676.63;5039755;28;20116;-73
2022/06/16 09:01:51;;;;;;;8.55;4.85;;;;;;;25.35;40.01;100668.50;5039908;28;20037;-73
2022/06/16 09:04:24;;;;;;;5.60;3.05;;;;;;;25.87;39.02;100672.31;5042195;28;20051;-72
2022/06/16 09:07:07;;;;;;;8.27;2.97;;;;;;;26.15;37.24;100679.41;5043404;28;20036;-74
2022/06/16 09:12:48;;;;;;;8.25;3.90;;;;;;;26.60;37.38;100674.47;5042174;28;20037;-73
2022/06/16 09:15:33;;;;;;;6.78;3.05;;;;;;;26.74;36.00;100681.59;5021937;28;20597;-73
2022/06/16 09:18:19;;;;;;;8.35;5.25;;;;;;;26.67;36.21;100678.47;5040391;28;20118;-73
2022/06/16 09:21:04;;;;;;;12.38;5.80;;;;;;;26.94;37.05;100684.75;5033081;28;20036;-73
2022/06/16 09:23:41;;;;;;;9.63;4.00;;;;;;;26.97;36.69;100693.50;5038198;28;20523;-73
2022/06/16 09:26:18;;;;;;;9.95;4.80;;;;;;;27.01;37.40;100694.13;5040142;28;20112;-73
2022/06/16 09:29:07;;;;;;;7.25;2.65;;;;;;;26.99;35.56;100702.38;5039300;28;20045;-73
2022/06/16 09:31:46;;;;;;;7.68;3.55;;;;;;;27.07;36.30;100699.97;5029314;28;20503;-73
2022/06/16 09:34:19;;;;;;;10.02;5.10;;;;;;;27.19;36.65;100709.06;5036139;28;20515;-73
2022/06/16 09:36:52;;;;;;;9.57;5.63;;;;;;;27.30;37.00;100705.56;5041311;28;20028;-73
2022/06/16 09:39:21;;;;;;;6.38;4.00;;;;;;;27.44;36.47;100702.72;5043017;28;20060;-73
2022/06/16 09:45:00;;;;;;;7.57;4.38;;;;;;;27.07;36.99;100694.56;5038444;28;20043;-73
2022/06/16 09:47:31;;;;;;;7.40;3.70;;;;;;;26.92;36.60;100701.09;5036853;28;20484;-73
2022/06/16 09:50:13;;;;;;;7.88;4.00;;;;;;;26.47;37.11;100699.78;5041200;28;20479;-73
2022/06/16 09:53:15;;;;;;;12.23;4.35;;;;;;;26.41;37.97;100711.91;5036662;28;20038;-73
2022/06/16 09:55:51;;;;;;;7.28;4.55;;;;;;;26.42;38.06;100725.31;5037370;28;20133;-73
2022/06/16 09:59:03;;;;;;;7.03;4.00;;;;;;;26.18;38.02;100719.75;5037596;28;20488;-72
2022/06/16 10:01:34;;;;;;;14.40;5.38;;;;;;;25.91;38.35;100713.50;5024806;28;20491;-72
2022/06/16 10:04:06;;;;;;;8.80;3.28;;;;;;;26.09;38.16;100711.41;5041143;28;20037;-73
2022/06/16 10:06:57;;;;;;;7.97;5.40;;;;;;;26.08;39.63;100718.66;5039694;28;20057;-73
2022/06/16 10:09:22;;;;;;;9.95;5.63;;;;;;;26.01;40.40;100720.03;5038074;28;20065;-73
2022/06/16 10:12:19;;;;;;;13.00;5.35;;;;;;;26.15;40.36;100702.88;5038639;28;20076;-73
2022/06/16 10:15:17;;;;;;;8.38;4.40;;;;;;;26.00;40.84;100697.53;5037309;28;20099;-73
2022/06/16 10:17:43;;;;;;;11.05;4.80;;;;;;;26.03;40.29;100712.69;5039172;28;20523;-73
2022/06/16 10:20:14;;;;;;;8.55;3.83;;;;;;;26.07;40.25;100710.63;5039822;28;20077;-73
2022/06/16 10:22:45;;;;;;;7.07;4.07;;;;;;;25.80;40.84;100701.53;5035094;28;20511;-73
2022/06/16 10:25:22;;;;;;;6.40;4.10;;;;;;;25.79;40.40;100699.81;5040991;28;20041;-73
2022/06/16 10:27:52;;;;;;;5.93;3.60;;;;;;;25.89;40.13;100693.84;5042283;28;20287;-73
2022/06/16 10:30:23;;;;;;;5.72;3.33;;;;;;;26.05;40.08;100699.94;5040819;28;20037;-73
2022/06/16 10:33:20;;;;;;;10.90;3.92;;;;;;;26.12;40.19;100695.84;5039312;28;20400;-73
2022/06/16 10:35:54;;;;;;;9.05;4.55;;;;;;;26.40;39.71;100699.31;5039027;28;20053;-73
2022/06/16 10:38:38;;;;;;;7.03;4.68;;;;;;;26.59;40.17;100709.75;5040207;28;20037;-73
2022/06/16 10:41:20;;;;;;;12.10;7.93;;;;;;;27.00;39.37;100704.09;5036123;28;20049;-73
2022/06/16 10:43:47;;;;;;;13.98;6.35;;;;;;;27.18;38.59;100701.06;5039137;28;20488;-73
2022/06/16 10:46:20;;;;;;;12.55;6.38;;;;;;;27.21;38.41;100699.00;5041891;28;20480;-73
2022/06/16 10:48:53;;;;;;;9.68;5.47;;;;;;;27.21;37.73;100700.84;5040860;28;20065;-73
2022/06/16 10:51:25;;;;;;;10.82;6.95;;;;;;;27.24;37.76;100701.47;5031797;28;20030;-73
2022/06/16 10:54:01;;;;;;;10.35;4.72;;;;;;;27.35;38.14;100716.94;5040919;28;20040;-73
2022/06/16 10:56:27;;;;;;;18.50;7.45;;;;;;;27.18;39.52;100717.34;5042381;28;20040;-73
2022/06/16 10:59:00;;;;;;;10.48;4.15;;;;;;;27.27;39.25;100719.34;5039099;28;20084;-73
2022/06/16 11:01:36;;;;;;;6.82;3.08;;;;;;;27.28;38.32;100721.09;5039603;28;20060;-73
2022/06/16 11:04:04;;;;;;;8.00;4.47;;;;;;;26.98;39.13;100726.84;5035120;28;20484;-73
2022/06/16 11:06:29;;;;;;;5.15;2.95;;;;;;;26.89;38.54;100723.84;5042863;28;20130;-73
2022/06/16 11:09:04;;;;;;;7.45;4.53;;;;;;;27.08;38.73;100707.13;5044048;28;20064;-73
2022/06/16 11:11:42;;;;;;;7.68;3.67;;;;;;;27.21;37.20;100711.69;5041782;28;20037;-73
2022/06/16 11:14:16;;;;;;;8.38;3.42;;;;;;;27.43;37.34;100717.28;5044063;28;20072;-73
2022/06/16 11:16:48;;;;;;;8.95;5.15;;;;;;;27.49;36.99;100716.81;5045909;28;20408;-72
2022/06/16 11:19:27;;;;;;;5.50;3.88;;;;;;;27.68;36.13;100697.31;5043585;28;20091;-73
2022/06/16 11:21:53;;;;;;;9.93;2.88;;;;;;;27.86;35.44;100705.94;5041272;28;20048;-73
2022/06/16 11:24:32;;;;;;;6.90;3.20;;;;;;;28.16;34.92;100707.28;5043897;28;20041;-73
2022/06/16 11:27:12;;;;;;;6.47;4.53;;;;;;;28.34;34.21;100713.97;5045527;28;20040;-73
2022/06/16 11:29:38;;;;;;;4.90;2.33;;;;;;;28.41;33.07;100701.66;5041553;28;20510;-74
2022/06/16 11:32:04;;;;;;;5.38;2.70;;;;;;;28.50;32.37;100702.81;5042377;28;20040;-74
2022/06/16 11:34:29;;;;;;;3.60;2.13;;;;;;;28.69;31.39;100706.78;5044930;28;20048;-73
2022/06/16 11:37:06;;;;;;;8.40;2.13;;;;;;;28.82;30.63;100705.72;5041888;28;20047;-73
2022/06/16 11:40:03;;;;;;;5.32;2.08;;;;;;;28.99;30.02;100708.91;5043559;28;20075;-73
2022/06/16 11:43:09;;;;;;;5.63;4.40;;;;;;;29.64;31.47;100694.53;5043176;28;20033;-73
2022/06/16 11:45:57;;;;;;;6.75;3.00;;;;;;;30.52;28.77;100698.84;5040931;28;20040;-73
2022/06/16 11:49:05;;;;;;;7.78;2.45;;;;;;;29.95;28.59;100689.22;5040018;28;20044;-73
2022/06/16 11:51:58;;;;;;;6.07;2.25;;;;;;;30.41;28.17;100700.75;5043930;28;20406;-73
2022/06/16 11:54:38;;;;;;;5.97;2.30;;;;;;;30.75;26.74;100696.78;5038737;28;20128;-73
2022/06/16 11:57:38;;;;;;;6.65;3.47;;;;;;;31.11;26.75;100682.78;5042188;28;20096;-73
2022/06/16 12:00:26;;;;;;;3.75;2.10;;;;;;;31.78;25.75;100684.81;5038560;28;20047;-73
2022/06/16 12:03:09;;;;;;;17.98;3.05;;;;;;;30.93;25.55;100691.59;5037733;28;20478;-73
2022/06/16 12:05:41;;;;;;;13.57;2.80;;;;;;;30.25;26.46;100696.63;5041693;28;20037;-73
2022/06/16 12:08:32;;;;;;;12.05;2.53;;;;;;;29.63;27.75;100691.91;5041733;28;20040;-74
2022/06/16 12:11:22;;;;;;;5.82;2.60;;;;;;;29.84;28.21;100694.69;5039431;28;20558;-74
2022/06/16 12:14:11;;;;;;;3.60;2.17;;;;;;;30.34;27.76;100682.25;5040079;28;20033;-73
2022/06/16 12:16:52;;;;;;;4.68;2.70;;;;;;;30.73;26.51;100684.31;5034737;28;20054;-74
2022/06/16 12:19:42;;;;;;;6.55;3.15;;;;;;;31.24;25.71;100683.41;5037038;28;20041;-74